sensor_id;sensor_type;location;lat;lon;timestamp;pressure;altitude;pressure_sealevel;temperature;humidity
48652;BME280;34442;52.362;-1.302;2023-10-19T00:00:48;96940.31;;;12.49;100.00
48652;BME280;34442;52.362;-1.302;2023-10-19T00:03:16;96936.53;;;12.50;100.00
48652;BME280;34442;52.362;-1.302;2023-10-19T00:05:41;96945.72;;;12.49;100.00
48652;BME280;34442;52.362;-1.302;2023-10-19T00:08:07;96937.16;;;12.47;100.00
48652;BME280;34442;52.362;-1.302;2023-10-19T00:10:39;96949.72;;;12.52;100.00
48652;BME280;34442;52.362;-1.302;2023-10-19T00:13:08;96958.38;;;12.49;100.00
48652;BME280;34442;52.362;-1.302;2023-10-19T00:15:35;96930.66;;;12.48;100.00
48652;BME280;34442;52.362;-1.302;2023-10-19T00:18:05;96955.81;;;12.44;100.00
48652;BME280;34442;52.362;-1.302;2023-10-19T00:20:45;96963.78;;;12.49;100.00
48652;BME280;34442;52.362;-1.302;2023-10-19T00:23:14;96957.09;;;12.46;100.00
48652;BME280;34442;52.362;-1.302;2023-10-19T00:25:46;96956.81;;;12.48;100.00
48652;BME280;34442;52.362;-1.302;2023-10-19T00:28:17;96971.84;;;12.49;100.00
48652;BME280;34442;52.362;-1.302;2023-10-19T00:30:43;96965.25;;;12.55;100.00
48652;BME280;34442;52.362;-1.302;2023-10-19T00:33:10;96977.63;;;12.56;100.00
48652;BME280;34442;52.362;-1.302;2023-10-19T00:35:49;96973.97;;;12.52;100.00
48652;BME280;34442;52.362;-1.302;2023-10-19T00:38:37;96977.44;;;12.52;100.00
48652;BME280;34442;52.362;-1.302;2023-10-19T00:41:04;96969.47;;;12.47;100.00
48652;BME280;34442;52.362;-1.302;2023-10-19T00:43:38;96974.25;;;12.50;100.00
48652;BME280;34442;52.362;-1.302;2023-10-19T00:46:15;96977.63;;;12.56;100.00
48652;BME280;34442;52.362;-1.302;2023-10-19T00:48:48;96980.81;;;12.58;100.00
48652;BME280;34442;52.362;-1.302;2023-10-19T00:51:20;96983.50;;;12.58;100.00
48652;BME280;34442;52.362;-1.302;2023-10-19T00:54:20;96985.72;;;12.56;100.00
48652;BME280;34442;52.362;-1.302;2023-10-19T00:57:00;96987.31;;;12.57;100.00
48652;BME280;34442;52.362;-1.302;2023-10-19T00:59:33;96975.41;;;12.58;100.00
48652;BME280;34442;52.362;-1.302;2023-10-19T01:02:13;96980.63;;;12.54;100.00
48652;BME280;34442;52.362;-1.302;2023-10-19T01:04:45;96973.53;;;12.58;100.00
48652;BME280;34442;52.362;-1.302;2023-10-19T01:07:16;96982.91;;;12.61;100.00
48652;BME280;34442;52.362;-1.302;2023-10-19T01:10:03;96980.69;;;12.63;100.00
48652;BME280;34442;52.362;-1.302;2023-10-19T01:12:37;96991.59;;;12.58;100.00
48652;BME280;34442;52.362;-1.302;2023-10-19T01:17:32;96995.38;;;12.57;100.00
48652;BME280;34442;52.362;-1.302;2023-10-19T01:19:59;97002.88;;;12.60;100.00
48652;BME280;34442;52.362;-1.302;2023-10-19T01:22:26;96989.69;;;12.58;100.00
48652;BME280;34442;52.362;-1.302;2023-10-19T01:24:52;96996.69;;;12.59;100.00
48652;BME280;34442;52.362;-1.302;2023-10-19T01:27:19;97001.78;;;12.61;100.00
48652;BME280;34442;52.362;-1.302;2023-10-19T01:29:45;96997.50;;;12.60;100.00
48652;BME280;34442;52.362;-1.302;2023-10-19T01:32:11;97005.06;;;12.58;100.00
48652;BME280;34442;52.362;-1.302;2023-10-19T01:34:40;97000.28;;;12.55;100.00
48652;BME280;34442;52.362;-1.302;2023-10-19T01:37:05;97005.19;;;12.53;100.00
48652;BME280;34442;52.362;-1.302;2023-10-19T01:39:32;97009.84;;;12.61;100.00
48652;BME280;34442;52.362;-1.302;2023-10-19T01:42:00;97013.47;;;12.56;100.00
48652;BME280;34442;52.362;-1.302;2023-10-19T01:44:25;97011.56;;;12.57;100.00
48652;BME280;34442;52.362;-1.302;2023-10-19T01:46:52;97019.84;;;12.60;100.00
48652;BME280;34442;52.362;-1.302;2023-10-19T01:49:17;97029.63;;;12.56;100.00
48652;BME280;34442;52.362;-1.302;2023-10-19T01:51:53;97022.53;;;12.60;100.00
48652;BME280;34442;52.362;-1.302;2023-10-19T01:54:20;97021.13;;;12.63;100.00
48652;BME280;34442;52.362;-1.302;2023-10-19T01:56:54;97026.50;;;12.63;100.00
48652;BME280;34442;52.362;-1.302;2023-10-19T01:59:25;97032.72;;;12.63;100.00
48652;BME280;34442;52.362;-1.302;2023-10-19T02:01:55;97029.81;;;12.60;100.00
48652;BME280;34442;52.362;-1.302;2023-10-19T02:04:22;97037.41;;;12.58;100.00
48652;BME280;34442;52.362;-1.302;2023-10-19T02:06:49;97036.50;;;12.62;100.00
48652;BME280;34442;52.362;-1.302;2023-10-19T02:09:17;97033.00;;;12.62;100.00
48652;BME280;34442;52.362;-1.302;2023-10-19T02:11:44;97038.91;;;12.50;100.00
48652;BME280;34442;52.362;-1.302;2023-10-19T02:14:13;97029.94;;;12.41;100.00
48652;BME280;34442;52.362;-1.302;2023-10-19T02:16:42;97030.38;;;12.34;100.00
48652;BME280;34442;52.362;-1.302;2023-10-19T02:19:09;97041.94;;;12.35;100.00
48652;BME280;34442;52.362;-1.302;2023-10-19T02:21:34;97046.81;;;12.33;100.00
48652;BME280;34442;52.362;-1.302;2023-10-19T02:24:09;97049.28;;;12.29;100.00
48652;BME280;34442;52.362;-1.302;2023-10-19T02:26:35;97042.53;;;12.32;100.00
48652;BME280;34442;52.362;-1.302;2023-10-19T02:29:03;97049.81;;;12.31;100.00
48652;BME280;34442;52.362;-1.302;2023-10-19T02:31:39;97045.00;;;12.28;100.00
48652;BME280;34442;52.362;-1.302;2023-10-19T02:34:09;97038.03;;;12.27;100.00
48652;BME280;34442;52.362;-1.302;2023-10-19T02:36:37;97050.28;;;12.33;100.00
48652;BME280;34442;52.362;-1.302;2023-10-19T02:39:05;97047.50;;;12.25;100.00
48652;BME280;34442;52.362;-1.302;2023-10-19T02:41:51;97053.09;;;12.28;100.00
48652;BME280;34442;52.362;-1.302;2023-10-19T02:44:19;97044.03;;;12.24;100.00
48652;BME280;34442;52.362;-1.302;2023-10-19T02:46:53;97040.22;;;12.25;100.00
48652;BME280;34442;52.362;-1.302;2023-10-19T02:49:24;97040.72;;;12.13;100.00
48652;BME280;34442;52.362;-1.302;2023-10-19T02:51:51;97041.34;;;12.10;100.00
48652;BME280;34442;52.362;-1.302;2023-10-19T02:54:20;97052.91;;;12.11;100.00
48652;BME280;34442;52.362;-1.302;2023-10-19T02:56:52;97058.56;;;12.09;100.00
48652;BME280;34442;52.362;-1.302;2023-10-19T02:59:20;97048.50;;;12.15;100.00
48652;BME280;34442;52.362;-1.302;2023-10-19T03:01:48;97039.03;;;12.17;100.00
48652;BME280;34442;52.362;-1.302;2023-10-19T03:04:14;97032.84;;;12.17;100.00
48652;BME280;34442;52.362;-1.302;2023-10-19T03:06:40;97028.56;;;12.16;100.00
48652;BME280;34442;52.362;-1.302;2023-10-19T03:09:08;97037.44;;;12.16;100.00
48652;BME280;34442;52.362;-1.302;2023-10-19T03:11:40;97040.03;;;12.22;100.00
48652;BME280;34442;52.362;-1.302;2023-10-19T03:14:08;97033.75;;;12.26;100.00
48652;BME280;34442;52.362;-1.302;2023-10-19T03:16:36;97030.75;;;12.28;100.00
48652;BME280;34442;52.362;-1.302;2023-10-19T03:19:02;97038.03;;;12.27;100.00
48652;BME280;34442;52.362;-1.302;2023-10-19T03:21:29;97035.56;;;12.31;100.00
48652;BME280;34442;52.362;-1.302;2023-10-19T03:23:58;97037.63;;;12.34;100.00
48652;BME280;34442;52.362;-1.302;2023-10-19T03:26:27;97029.38;;;12.30;100.00
48652;BME280;34442;52.362;-1.302;2023-10-19T03:28:56;97031.16;;;12.35;100.00
48652;BME280;34442;52.362;-1.302;2023-10-19T03:31:24;97032.75;;;12.36;100.00
48652;BME280;34442;52.362;-1.302;2023-10-19T03:33:53;97027.44;;;12.45;100.00
48652;BME280;34442;52.362;-1.302;2023-10-19T03:36:25;97024.44;;;12.46;100.00
48652;BME280;34442;52.362;-1.302;2023-10-19T03:38:51;97018.25;;;12.46;100.00
48652;BME280;34442;52.362;-1.302;2023-10-19T03:41:19;97020.03;;;12.50;100.00
48652;BME280;34442;52.362;-1.302;2023-10-19T03:43:49;97028.31;;;12.54;100.00
48652;BME280;34442;52.362;-1.302;2023-10-19T03:46:17;97019.25;;;12.50;100.00
48652;BME280;34442;52.362;-1.302;2023-10-19T03:49:03;97027.22;;;12.55;100.00
48652;BME280;34442;52.362;-1.302;2023-10-19T03:51:39;97021.13;;;12.63;100.00
48652;BME280;34442;52.362;-1.302;2023-10-19T03:54:27;97019.25;;;12.63;100.00
48652;BME280;34442;52.362;-1.302;2023-10-19T03:56:54;97021.75;;;12.60;100.00
48652;BME280;34442;52.362;-1.302;2023-10-19T03:59:21;97013.66;;;12.60;100.00
48652;BME280;34442;52.362;-1.302;2023-10-19T04:01:47;97011.88;;;12.55;100.00
48652;BME280;34442;52.362;-1.302;2023-10-19T04:04:13;97014.56;;;12.55;100.00
48652;BME280;34442;52.362;-1.302;2023-10-19T04:06:41;97012.34;;;12.57;100.00
48652;BME280;34442;52.362;-1.302;2023-10-19T04:09:13;97007.75;;;12.58;100.00
48652;BME280;34442;52.362;-1.302;2023-10-19T04:11:42;97012.75;;;12.64;100.00
48652;BME280;34442;52.362;-1.302;2023-10-19T04:14:17;97008.03;;;12.70;100.00
48652;BME280;34442;52.362;-1.302;2023-10-19T04:16:46;97009.19;;;12.55;100.00
48652;BME280;34442;52.362;-1.302;2023-10-19T04:19:14;97005.66;;;12.55;100.00
48652;BME280;34442;52.362;-1.302;2023-10-19T04:21:41;97004.06;;;12.68;100.00
48652;BME280;34442;52.362;-1.302;2023-10-19T04:24:10;96999.47;;;12.68;100.00
48652;BME280;34442;52.362;-1.302;2023-10-19T04:26:38;97003.34;;;12.76;100.00
48652;BME280;34442;52.362;-1.302;2023-10-19T04:29:05;96992.38;;;12.72;100.00
48652;BME280;34442;52.362;-1.302;2023-10-19T04:31:43;96991.13;;;12.78;100.00
48652;BME280;34442;52.362;-1.302;2023-10-19T04:34:17;96994.44;;;12.75;100.00
48652;BME280;34442;52.362;-1.302;2023-10-19T04:36:49;96991.44;;;12.77;100.00
48652;BME280;34442;52.362;-1.302;2023-10-19T04:39:15;96987.97;;;12.76;100.00
48652;BME280;34442;52.362;-1.302;2023-10-19T04:41:40;96997.13;;;12.75;100.00
48652;BME280;34442;52.362;-1.302;2023-10-19T04:44:07;96990.03;;;12.79;100.00
48652;BME280;34442;52.362;-1.302;2023-10-19T04:46:34;97001.91;;;12.78;100.00
48652;BME280;34442;52.362;-1.302;2023-10-19T04:48:59;96995.63;;;12.83;100.00
48652;BME280;34442;52.362;-1.302;2023-10-19T04:51:25;96992.00;;;12.87;100.00
48652;BME280;34442;52.362;-1.302;2023-10-19T04:53:50;96991.41;;;12.90;100.00
48652;BME280;34442;52.362;-1.302;2023-10-19T04:56:16;96976.75;;;12.83;100.00
48652;BME280;34442;52.362;-1.302;2023-10-19T04:58:41;96981.84;;;12.84;100.00
48652;BME280;34442;52.362;-1.302;2023-10-19T05:01:07;96979.25;;;12.79;100.00
48652;BME280;34442;52.362;-1.302;2023-10-19T05:03:32;96976.88;;;12.78;100.00
48652;BME280;34442;52.362;-1.302;2023-10-19T05:05:58;96972.78;;;12.80;100.00
48652;BME280;34442;52.362;-1.302;2023-10-19T05:08:24;96966.88;;;12.78;100.00
48652;BME280;34442;52.362;-1.302;2023-10-19T05:10:54;96967.66;;;12.79;100.00
48652;BME280;34442;52.362;-1.302;2023-10-19T05:13:23;96974.84;;;12.83;100.00
48652;BME280;34442;52.362;-1.302;2023-10-19T05:15:50;96966.16;;;12.86;100.00
48652;BME280;34442;52.362;-1.302;2023-10-19T05:18:15;96961.88;;;12.85;100.00
48652;BME280;34442;52.362;-1.302;2023-10-19T05:20:41;96967.00;;;12.96;100.00
48652;BME280;34442;52.362;-1.302;2023-10-19T05:23:07;96962.78;;;13.03;100.00
48652;BME280;34442;52.362;-1.302;2023-10-19T05:25:34;96962.50;;;13.05;100.00
48652;BME280;34442;52.362;-1.302;2023-10-19T05:28:02;96956.41;;;12.99;100.00
48652;BME280;34442;52.362;-1.302;2023-10-19T05:30:27;96959.91;;;13.00;100.00
48652;BME280;34442;52.362;-1.302;2023-10-19T05:32:53;96952.91;;;12.99;100.00
48652;BME280;34442;52.362;-1.302;2023-10-19T05:35:18;96954.69;;;13.03;100.00
48652;BME280;34442;52.362;-1.302;2023-10-19T05:37:51;96948.88;;;13.10;100.00
48652;BME280;34442;52.362;-1.302;2023-10-19T05:40:17;96953.97;;;13.11;100.00
48652;BME280;34442;52.362;-1.302;2023-10-19T05:42:44;96948.59;;;13.20;100.00
48652;BME280;34442;52.362;-1.302;2023-10-19T05:45:11;96940.34;;;13.16;100.00
48652;BME280;34442;52.362;-1.302;2023-10-19T05:47:38;96940.97;;;13.13;100.00
48652;BME280;34442;52.362;-1.302;2023-10-19T05:50:04;96943.22;;;13.20;100.00
48652;BME280;34442;52.362;-1.302;2023-10-19T05:52:30;96943.94;;;13.26;100.00
48652;BME280;34442;52.362;-1.302;2023-10-19T05:54:55;96936.03;;;13.29;100.00
48652;BME280;34442;52.362;-1.302;2023-10-19T05:57:22;96931.72;;;13.28;100.00
48652;BME280;34442;52.362;-1.302;2023-10-19T05:59:49;96922.88;;;13.36;100.00
48652;BME280;34442;52.362;-1.302;2023-10-19T06:02:14;96924.91;;;13.31;100.00
48652;BME280;34442;52.362;-1.302;2023-10-19T06:04:40;96922.88;;;13.36;100.00
48652;BME280;34442;52.362;-1.302;2023-10-19T06:07:06;96917.66;;;13.40;100.00
48652;BME280;34442;52.362;-1.302;2023-10-19T06:09:31;96911.66;;;13.43;100.00
48652;BME280;34442;52.362;-1.302;2023-10-19T06:11:56;96917.22;;;13.47;100.00
48652;BME280;34442;52.362;-1.302;2023-10-19T06:14:22;96920.72;;;13.47;100.00
48652;BME280;34442;52.362;-1.302;2023-10-19T06:16:47;96924.38;;;13.51;100.00
48652;BME280;34442;52.362;-1.302;2023-10-19T06:19:13;96919.94;;;13.55;100.00
48652;BME280;34442;52.362;-1.302;2023-10-19T06:21:38;96922.03;;;13.58;100.00
48652;BME280;34442;52.362;-1.302;2023-10-19T06:24:05;96926.00;;;13.61;100.00
48652;BME280;34442;52.362;-1.302;2023-10-19T06:26:31;96927.75;;;13.65;100.00
48652;BME280;34442;52.362;-1.302;2023-10-19T06:28:57;96929.66;;;13.65;100.00
48652;BME280;34442;52.362;-1.302;2023-10-19T06:31:25;96935.38;;;13.63;100.00
48652;BME280;34442;52.362;-1.302;2023-10-19T06:33:54;96940.78;;;13.63;100.00
48652;BME280;34442;52.362;-1.302;2023-10-19T06:36:19;96944.44;;;13.68;100.00
48652;BME280;34442;52.362;-1.302;2023-10-19T06:38:45;96946.53;;;13.71;100.00
48652;BME280;34442;52.362;-1.302;2023-10-19T06:41:14;96943.03;;;13.70;100.00
48652;BME280;34442;52.362;-1.302;2023-10-19T06:43:40;96943.03;;;13.70;100.00
48652;BME280;34442;52.362;-1.302;2023-10-19T06:46:05;96943.03;;;13.70;100.00
48652;BME280;34442;52.362;-1.302;2023-10-19T06:48:32;96939.56;;;13.78;100.00
48652;BME280;34442;52.362;-1.302;2023-10-19T06:50:57;96952.25;;;13.78;100.00
48652;BME280;34442;52.362;-1.302;2023-10-19T06:53:26;96948.78;;;13.77;100.00
48652;BME280;34442;52.362;-1.302;2023-10-19T06:55:51;96955.47;;;13.80;100.00
48652;BME280;34442;52.362;-1.302;2023-10-19T06:58:18;96957.84;;;13.81;100.00
48652;BME280;34442;52.362;-1.302;2023-10-19T07:00:47;96951.66;;;13.81;100.00
48652;BME280;34442;52.362;-1.302;2023-10-19T07:03:21;96957.03;;;13.81;100.00
48652;BME280;34442;52.362;-1.302;2023-10-19T07:05:47;96962.44;;;13.81;100.00
48652;BME280;34442;52.362;-1.302;2023-10-19T07:08:13;96967.38;;;13.79;100.00
48652;BME280;34442;52.362;-1.302;2023-10-19T07:10:41;96959.13;;;14.41;100.00
48652;BME280;34442;52.362;-1.302;2023-10-19T07:13:08;96952.63;;;14.59;100.00
48652;BME280;34442;52.362;-1.302;2023-10-19T07:15:34;96964.22;;;13.85;100.00
48652;BME280;34442;52.362;-1.302;2023-10-19T07:17:59;96963.56;;;13.80;100.00
48652;BME280;34442;52.362;-1.302;2023-10-19T07:20:26;96955.94;;;13.82;100.00
48652;BME280;34442;52.362;-1.302;2023-10-19T07:23:01;96964.34;;;13.80;100.00
48652;BME280;34442;52.362;-1.302;2023-10-19T07:25:47;96965.75;;;13.78;100.00
48652;BME280;34442;52.362;-1.302;2023-10-19T07:28:14;96966.56;;;13.78;100.00
48652;BME280;34442;52.362;-1.302;2023-10-19T07:30:42;96966.13;;;13.85;100.00
48652;BME280;34442;52.362;-1.302;2023-10-19T07:33:09;96963.84;;;13.78;100.00
48652;BME280;34442;52.362;-1.302;2023-10-19T07:35:36;96964.03;;;13.82;100.00
48652;BME280;34442;52.362;-1.302;2023-10-19T07:38:05;96964.34;;;13.80;100.00
48652;BME280;34442;52.362;-1.302;2023-10-19T07:40:33;96967.41;;;13.87;100.00
48652;BME280;34442;52.362;-1.302;2023-10-19T07:42:58;96960.53;;;13.81;100.00
48652;BME280;34442;52.362;-1.302;2023-10-19T07:45:25;96965.00;;;13.86;100.00
48652;BME280;34442;52.362;-1.302;2023-10-19T07:47:51;96971.09;;;14.00;100.00
48652;BME280;34442;52.362;-1.302;2023-10-19T07:50:16;96966.75;;;13.90;100.00
48652;BME280;34442;52.362;-1.302;2023-10-19T07:52:50;96972.69;;;14.01;100.00
48652;BME280;34442;52.362;-1.302;2023-10-19T07:55:16;96976.75;;;13.90;100.00
48652;BME280;34442;52.362;-1.302;2023-10-19T07:57:43;96974.09;;;13.99;100.00
48652;BME280;34442;52.362;-1.302;2023-10-19T08:00:10;96976.78;;;13.99;100.00
48652;BME280;34442;52.362;-1.302;2023-10-19T08:02:39;96980.63;;;13.98;100.00
48652;BME280;34442;52.362;-1.302;2023-10-19T08:05:09;96977.72;;;13.85;100.00
48652;BME280;34442;52.362;-1.302;2023-10-19T08:07:37;96993.50;;;14.01;100.00
48652;BME280;34442;52.362;-1.302;2023-10-19T08:10:05;96981.56;;;14.02;100.00
48652;BME280;34442;52.362;-1.302;2023-10-19T08:12:31;96987.66;;;14.07;100.00
48652;BME280;34442;52.362;-1.302;2023-10-19T08:14:58;96980.00;;;14.01;100.00
48652;BME280;34442;52.362;-1.302;2023-10-19T08:17:24;96979.50;;;13.99;100.00
48652;BME280;34442;52.362;-1.302;2023-10-19T08:19:53;96984.00;;;14.12;100.00
48652;BME280;34442;52.362;-1.302;2023-10-19T08:22:18;96987.34;;;14.09;100.00
48652;BME280;34442;52.362;-1.302;2023-10-19T08:24:44;96979.56;;;14.16;100.00
48652;BME280;34442;52.362;-1.302;2023-10-19T08:27:11;96988.28;;;14.13;100.00
48652;BME280;34442;52.362;-1.302;2023-10-19T08:29:37;96985.75;;;14.08;100.00
48652;BME280;34442;52.362;-1.302;2023-10-19T08:32:03;96986.38;;;14.13;100.00
48652;BME280;34442;52.362;-1.302;2023-10-19T08:34:29;96975.72;;;14.08;100.00
48652;BME280;34442;52.362;-1.302;2023-10-19T08:37:02;96984.19;;;14.15;100.00
48652;BME280;34442;52.362;-1.302;2023-10-19T08:39:30;96988.91;;;14.10;100.00
48652;BME280;34442;52.362;-1.302;2023-10-19T08:42:05;96989.09;;;14.13;100.00
48652;BME280;34442;52.362;-1.302;2023-10-19T08:44:32;96989.72;;;14.19;100.00
48652;BME280;34442;52.362;-1.302;2023-10-19T08:46:58;96978.78;;;14.15;100.00
48652;BME280;34442;52.362;-1.302;2023-10-19T08:49:25;96980.38;;;14.17;100.00
48652;BME280;34442;52.362;-1.302;2023-10-19T08:51:51;96985.78;;;14.17;100.00
48652;BME280;34442;52.362;-1.302;2023-10-19T08:54:19;96984.97;;;14.16;100.00
48652;BME280;34442;52.362;-1.302;2023-10-19T08:56:45;96982.56;;;14.14;100.00
48652;BME280;34442;52.362;-1.302;2023-10-19T08:59:13;96985.44;;;14.18;100.00
48652;BME280;34442;52.362;-1.302;2023-10-19T09:01:42;96984.31;;;14.19;100.00
48652;BME280;34442;52.362;-1.302;2023-10-19T09:04:11;96986.41;;;14.22;100.00
48652;BME280;34442;52.362;-1.302;2023-10-19T09:06:37;96972.56;;;14.15;100.00
48652;BME280;34442;52.362;-1.302;2023-10-19T09:09:11;96980.03;;;14.09;100.00
48652;BME280;34442;52.362;-1.302;2023-10-19T09:11:45;96982.28;;;14.16;100.00
48652;BME280;34442;52.362;-1.302;2023-10-19T09:14:12;96989.44;;;14.21;100.00
48652;BME280;34442;52.362;-1.302;2023-10-19T09:16:53;96983.88;;;14.26;100.00
48652;BME280;34442;52.362;-1.302;2023-10-19T09:19:43;96996.59;;;14.25;100.00
48652;BME280;34442;52.362;-1.302;2023-10-19T09:22:09;96992.78;;;14.26;100.00
48652;BME280;34442;52.362;-1.302;2023-10-19T09:24:45;96994.69;;;14.26;100.00
48652;BME280;34442;52.362;-1.302;2023-10-19T09:27:12;97001.50;;;14.23;100.00
48652;BME280;34442;52.362;-1.302;2023-10-19T09:29:38;97002.34;;;14.32;100.00
48652;BME280;34442;52.362;-1.302;2023-10-19T09:32:05;96995.66;;;14.38;100.00
48652;BME280;34442;52.362;-1.302;2023-10-19T09:34:31;96988.53;;;14.43;100.00
48652;BME280;34442;52.362;-1.302;2023-10-19T09:37:00;96996.81;;;14.46;100.00
48652;BME280;34442;52.362;-1.302;2023-10-19T09:39:29;96992.38;;;14.50;100.00
48652;BME280;34442;52.362;-1.302;2023-10-19T09:42:10;97003.38;;;14.54;100.00
48652;BME280;34442;52.362;-1.302;2023-10-19T09:44:40;97000.03;;;14.57;100.00
48652;BME280;34442;52.362;-1.302;2023-10-19T09:47:11;96998.13;;;14.57;100.00
48652;BME280;34442;52.362;-1.302;2023-10-19T09:49:41;96995.72;;;14.56;100.00
48652;BME280;34442;52.362;-1.302;2023-10-19T09:52:09;96997.66;;;14.64;100.00
48652;BME280;34442;52.362;-1.302;2023-10-19T09:54:41;96997.66;;;14.64;100.00
48652;BME280;34442;52.362;-1.302;2023-10-19T09:57:16;96987.78;;;14.68;100.00
48652;BME280;34442;52.362;-1.302;2023-10-19T09:59:45;96992.72;;;14.75;100.00
48652;BME280;34442;52.362;-1.302;2023-10-19T10:02:16;96996.84;;;14.81;100.00
48652;BME280;34442;52.362;-1.302;2023-10-19T10:04:46;96995.94;;;14.85;100.00
48652;BME280;34442;52.362;-1.302;2023-10-19T10:07:13;97000.38;;;14.81;100.00
48652;BME280;34442;52.362;-1.302;2023-10-19T10:09:42;97002.28;;;14.81;100.00
48652;BME280;34442;52.362;-1.302;2023-10-19T10:15:02;97002.94;;;14.78;100.00
48652;BME280;34442;52.362;-1.302;2023-10-19T10:17:29;97005.78;;;14.81;100.00
48652;BME280;34442;52.362;-1.302;2023-10-19T10:22:39;97007.38;;;14.82;100.00
48652;BME280;34442;52.362;-1.302;2023-10-19T10:25:07;97005.94;;;14.85;100.00
48652;BME280;34442;52.362;-1.302;2023-10-19T10:27:36;97006.09;;;14.80;100.00
48652;BME280;34442;52.362;-1.302;2023-10-19T10:30:04;97014.06;;;14.94;100.00
48652;BME280;34442;52.362;-1.302;2023-10-19T10:35:10;97006.75;;;14.85;100.00
48652;BME280;34442;52.362;-1.302;2023-10-19T10:37:38;97006.41;;;15.04;100.00
48652;BME280;34442;52.362;-1.302;2023-10-19T10:40:07;97011.66;;;15.09;100.00
48652;BME280;34442;52.362;-1.302;2023-10-19T10:42:32;97010.69;;;15.14;100.00
48652;BME280;34442;52.362;-1.302;2023-10-19T10:44:59;97008.50;;;15.07;100.00
48652;BME280;34442;52.362;-1.302;2023-10-19T10:47:24;97010.06;;;15.08;100.00
48652;BME280;34442;52.362;-1.302;2023-10-19T10:50:00;97015.16;;;15.10;100.00
48652;BME280;34442;52.362;-1.302;2023-10-19T10:52:27;97002.59;;;15.14;100.00
48652;BME280;34442;52.362;-1.302;2023-10-19T10:54:57;97005.47;;;15.09;100.00
48652;BME280;34442;52.362;-1.302;2023-10-19T10:57:24;97010.88;;;15.18;100.00
48652;BME280;34442;52.362;-1.302;2023-10-19T11:00:07;97007.19;;;15.22;100.00
48652;BME280;34442;52.362;-1.302;2023-10-19T11:03:02;96999.56;;;15.24;100.00
48652;BME280;34442;52.362;-1.302;2023-10-19T11:05:33;97002.91;;;15.21;100.00
48652;BME280;34442;52.362;-1.302;2023-10-19T11:08:14;97005.63;;;15.21;100.00
48652;BME280;34442;52.362;-1.302;2023-10-19T11:10:42;97004.19;;;15.32;100.00
48652;BME280;34442;52.362;-1.302;2023-10-19T11:13:09;96993.19;;;15.37;100.00
48652;BME280;34442;52.362;-1.302;2023-10-19T11:15:36;96990.81;;;15.27;100.00
48652;BME280;34442;52.362;-1.302;2023-10-19T11:18:02;96993.19;;;15.37;100.00
48652;BME280;34442;52.362;-1.302;2023-10-19T11:20:28;96988.72;;;15.33;100.00
48652;BME280;34442;52.362;-1.302;2023-10-19T11:22:54;96986.19;;;15.36;100.00
48652;BME280;34442;52.362;-1.302;2023-10-19T11:25:30;96986.81;;;15.25;100.00
48652;BME280;34442;52.362;-1.302;2023-10-19T11:27:59;96991.28;;;15.21;100.00
48652;BME280;34442;52.362;-1.302;2023-10-19T11:30:28;96985.84;;;15.38;100.00
48652;BME280;34442;52.362;-1.302;2023-10-19T11:32:55;96981.22;;;15.56;100.00
48652;BME280;34442;52.362;-1.302;2023-10-19T11:35:28;96988.06;;;15.53;100.00
48652;BME280;34442;52.362;-1.302;2023-10-19T11:37:59;96978.81;;;15.46;100.00
48652;BME280;34442;52.362;-1.302;2023-10-19T11:40:26;96974.25;;;15.29;100.00
48652;BME280;34442;52.362;-1.302;2023-10-19T11:42:55;96986.50;;;15.44;100.00
48652;BME280;34442;52.362;-1.302;2023-10-19T11:45:21;96975.00;;;15.55;100.00
48652;BME280;34442;52.362;-1.302;2023-10-19T11:47:48;96981.22;;;15.56;100.00
48652;BME280;34442;52.362;-1.302;2023-10-19T11:50:14;96972.78;;;15.49;100.00
48652;BME280;34442;52.362;-1.302;2023-10-19T11:52:44;96973.53;;;15.58;100.00
48652;BME280;34442;52.362;-1.302;2023-10-19T11:55:14;96962.09;;;15.52;100.00
48652;BME280;34442;52.362;-1.302;2023-10-19T11:57:40;96969.09;;;15.53;100.00
48652;BME280;34442;52.362;-1.302;2023-10-19T12:00:10;96959.13;;;15.36;100.00
48652;BME280;34442;52.362;-1.302;2023-10-19T12:02:42;96962.00;;;15.31;100.00
48652;BME280;34442;52.362;-1.302;2023-10-19T12:05:09;96952.41;;;15.34;100.00
48652;BME280;34442;52.362;-1.302;2023-10-19T12:07:39;96952.94;;;15.27;100.00
48652;BME280;34442;52.362;-1.302;2023-10-19T12:10:09;96956.41;;;15.36;100.00
48652;BME280;34442;52.362;-1.302;2023-10-19T12:12:36;96957.81;;;15.43;100.00
48652;BME280;34442;52.362;-1.302;2023-10-19T12:15:03;96955.22;;;15.55;100.00
48652;BME280;34442;52.362;-1.302;2023-10-19T12:17:31;96950.59;;;15.64;100.00
48652;BME280;34442;52.362;-1.302;2023-10-19T12:19:57;96948.38;;;15.57;100.00
48652;BME280;34442;52.362;-1.302;2023-10-19T12:22:23;96945.09;;;15.43;100.00
48652;BME280;34442;52.362;-1.302;2023-10-19T12:24:49;96946.22;;;15.33;100.00
48652;BME280;34442;52.362;-1.302;2023-10-19T12:27:16;96944.97;;;15.31;100.00
48652;BME280;34442;52.362;-1.302;2023-10-19T12:29:43;96949.72;;;15.25;100.00
48652;BME280;34442;52.362;-1.302;2023-10-19T12:32:08;96948.47;;;15.23;100.00
48652;BME280;34442;52.362;-1.302;2023-10-19T12:34:34;96944.16;;;15.22;100.00
48652;BME280;34442;52.362;-1.302;2023-10-19T12:37:00;96940.38;;;15.05;100.00
48652;BME280;34442;52.362;-1.302;2023-10-19T12:39:27;96940.69;;;15.12;100.00
48652;BME280;34442;52.362;-1.302;2023-10-19T12:42:08;96947.03;;;15.25;100.00
48652;BME280;34442;52.362;-1.302;2023-10-19T12:44:34;96941.16;;;15.23;100.00
48652;BME280;34442;52.362;-1.302;2023-10-19T12:47:10;96944.31;;;15.34;100.00
48652;BME280;34442;52.362;-1.302;2023-10-19T12:49:39;96944.44;;;15.37;100.00
48652;BME280;34442;52.362;-1.302;2023-10-19T12:52:06;96955.78;;;15.39;100.00
48652;BME280;34442;52.362;-1.302;2023-10-19T12:54:33;96950.63;;;15.47;100.00
48652;BME280;34442;52.362;-1.302;2023-10-19T12:57:01;96936.44;;;15.58;100.00
48652;BME280;34442;52.362;-1.302;2023-10-19T12:59:29;96943.75;;;15.67;100.00